Time;durP1;ratioP1;P1;durP2;ratioP2;P2;SDS_P1;SDS_P2;PMS_P1;PMS_P2;Temp;Humidity;BMP_temperature;BMP_pressure;BME280_temperature;BME280_humidity;BME280_pressure;Samples;Min_cycle;Max_cycle;Signal;HPM_P1;HPM_P2
2021/11/15 00:00:33;;;;;;;14.50;10.05;;;8.70;78.70;;;;;;5123575;27;20042;-81
2021/11/15 00:02:59;;;;;;;11.55;8.57;;;8.70;78.80;;;;;;5141311;27;20015;-80
2021/11/15 00:05:25;;;;;;;15.85;9.75;;;8.70;79.00;;;;;;5140717;27;20034;-79
2021/11/15 00:07:51;;;;;;;13.40;9.18;;;8.70;79.10;;;;;;5141108;27;20031;-80
2021/11/15 00:10:17;;;;;;;12.85;8.65;;;8.70;79.20;;;;;;5143832;27;20024;-80
2021/11/15 00:12:51;;;;;;;16.23;10.63;;;8.70;79.10;;;;;;5140890;27;20083;-78
2021/11/15 00:15:17;;;;;;;17.00;10.02;;;8.70;79.10;;;;;;5141134;27;20051;-79
2021/11/15 00:17:43;;;;;;;15.20;9.95;;;8.60;79.20;;;;;;5126548;27;20125;-78
2021/11/15 00:20:09;;;;;;;17.58;11.70;;;8.60;79.10;;;;;;5146462;27;20031;-78
2021/11/15 00:22:35;;;;;;;20.05;11.23;;;8.60;79.20;;;;;;5143159;27;20121;-78
2021/11/15 00:25:02;;;;;;;17.52;11.18;;;8.50;79.30;;;;;;5142975;27;20027;-79
2021/11/15 00:27:28;;;;;;;16.55;10.23;;;8.50;79.60;;;;;;5142097;27;20034;-78
2021/11/15 00:29:57;;;;;;;16.45;11.07;;;8.50;79.70;;;;;;5154811;27;20023;-78
2021/11/15 00:32:22;;;;;;;20.52;11.25;;;8.50;79.70;;;;;;5156461;27;20043;-78
2021/11/15 00:34:48;;;;;;;16.25;10.82;;;8.50;79.50;;;;;;5157130;27;20050;-78
2021/11/15 00:37:14;;;;;;;16.92;10.88;;;8.50;79.70;;;;;;5157490;27;20112;-80
2021/11/15 00:39:39;;;;;;;20.58;11.20;;;8.40;79.50;;;;;;5148258;27;20033;-80
2021/11/15 00:42:05;;;;;;;14.40;9.57;;;8.40;79.20;;;;;;5145510;27;20033;-80
2021/11/15 00:44:30;;;;;;;13.77;9.68;;;8.40;79.20;;;;;;5143437;27;20054;-79
2021/11/15 00:46:56;;;;;;;14.90;9.57;;;8.30;79.20;;;;;;5144260;27;20027;-78
2021/11/15 00:49:21;;;;;;;17.38;11.57;;;8.30;79.50;;;;;;5144805;27;20102;-77
2021/11/15 00:51:47;;;;;;;16.77;11.40;;;8.30;79.60;;;;;;5138985;27;20015;-80
2021/11/15 00:54:13;;;;;;;15.77;10.35;;;8.30;79.70;;;;;;5120883;27;20023;-79
2021/11/15 00:56:38;;;;;;;16.73;9.73;;;8.30;79.60;;;;;;5138955;27;20523;-79
2021/11/15 00:59:04;;;;;;;14.98;10.02;;;8.30;79.30;;;;;;5120214;27;20069;-79
2021/11/15 01:01:29;;;;;;;17.10;10.57;;;8.30;80.00;;;;;;5138606;27;20040;-79
2021/11/15 01:03:55;;;;;;;17.38;11.27;;;8.30;79.30;;;;;;5138614;27;20030;-79
2021/11/15 01:06:20;;;;;;;15.68;10.25;;;8.30;79.40;;;;;;5138099;27;20031;-79
2021/11/15 01:08:46;;;;;;;15.32;9.57;;;8.20;79.30;;;;;;5138400;27;20027;-79
2021/11/15 01:11:12;;;;;;;15.50;9.70;;;8.20;79.30;;;;;;5138616;27;20023;-80
2021/11/15 01:13:38;;;;;;;17.80;10.02;;;8.20;79.30;;;;;;5137688;27;20023;-79
2021/11/15 01:16:07;;;;;;;16.70;10.60;;;8.10;79.60;;;;;;5138409;27;20020;-80
2021/11/15 01:18:33;;;;;;;15.85;10.32;;;8.10;79.70;;;;;;5137669;27;20110;-79
2021/11/15 01:20:59;;;;;;;19.05;12.18;;;8.10;80.00;;;;;;5138220;27;20438;-79
2021/11/15 01:23:24;;;;;;;21.45;12.15;;;8.10;80.00;;;;;;5145482;27;20491;-79
2021/11/15 01:25:50;;;;;;;16.92;11.32;;;8.00;80.10;;;;;;5145210;27;20083;-79
2021/11/15 01:28:16;;;;;;;18.08;11.75;;;8.10;80.40;;;;;;5145488;27;20039;-78
2021/11/15 01:30:41;;;;;;;17.15;10.88;;;8.10;80.50;;;;;;5139400;27;20034;-79
2021/11/15 01:33:07;;;;;;;20.63;12.18;;;8.10;80.60;;;;;;5139391;27;20503;-78
2021/11/15 01:35:33;;;;;;;23.08;13.07;;;8.10;80.90;;;;;;5137354;27;20131;-78
2021/11/15 01:37:59;;;;;;;20.25;12.13;;;8.10;81.00;;;;;;5136699;27;20031;-77
2021/11/15 01:40:29;;;;;;;21.45;12.75;;;8.10;81.00;;;;;;5136831;27;20463;-78
2021/11/15 01:42:55;;;;;;;21.70;12.18;;;8.10;81.10;;;;;;5117755;27;20498;-79
2021/11/15 01:45:25;;;;;;;19.73;11.70;;;8.10;81.20;;;;;;5136348;27;20019;-78
2021/11/15 01:47:53;;;;;;;22.30;13.70;;;8.00;81.20;;;;;;5136215;27;20054;-78
2021/11/15 01:50:20;;;;;;;20.38;12.23;;;8.00;81.10;;;;;;5136050;27;20022;-77
2021/11/15 01:52:46;;;;;;;21.27;13.30;;;8.00;80.90;;;;;;5136004;27;20407;-78
2021/11/15 01:55:12;;;;;;;21.00;12.93;;;8.00;80.90;;;;;;5135971;27;20027;-78
2021/11/15 01:57:38;;;;;;;20.70;13.13;;;8.00;81.10;;;;;;5135947;27;20019;-78
2021/11/15 02:00:10;;;;;;;21.27;13.55;;;8.00;81.20;;;;;;5135889;27;20042;-78
2021/11/15 02:02:36;;;;;;;21.92;13.55;;;8.00;81.30;;;;;;5134759;27;20026;-79
2021/11/15 02:05:03;;;;;;;20.40;13.00;;;8.00;81.30;;;;;;5135828;27;20023;-77
2021/11/15 02:07:28;;;;;;;22.42;13.48;;;8.00;81.40;;;;;;5135789;27;20023;-77
2021/11/15 02:09:54;;;;;;;23.55;14.88;;;8.00;81.40;;;;;;5135468;27;20022;-77
2021/11/15 02:12:20;;;;;;;21.13;12.98;;;8.00;81.30;;;;;;5135690;27;20023;-77
2021/11/15 02:14:45;;;;;;;22.45;12.57;;;7.90;81.30;;;;;;5135583;27;20057;-78
2021/11/15 02:17:11;;;;;;;22.27;13.80;;;8.00;81.50;;;;;;5135862;27;20023;-79
2021/11/15 02:19:39;;;;;;;21.17;12.70;;;7.90;81.60;;;;;;5135624;27;20031;-79
2021/11/15 02:22:05;;;;;;;20.00;12.38;;;8.00;81.50;;;;;;5135304;27;20019;-80
2021/11/15 02:24:31;;;;;;;20.23;12.02;;;8.00;81.40;;;;;;5135307;27;20034;-79
2021/11/15 02:26:57;;;;;;;21.38;13.05;;;8.00;81.20;;;;;;5135296;27;20034;-80
2021/11/15 02:29:22;;;;;;;21.05;12.25;;;8.00;80.90;;;;;;5135385;27;20023;-78
2021/11/15 02:31:48;;;;;;;18.20;11.40;;;8.00;80.70;;;;;;5134917;27;20047;-80
2021/11/15 02:34:14;;;;;;;18.92;11.93;;;8.00;80.70;;;;;;5135321;27;20039;-81
2021/11/15 02:36:40;;;;;;;20.65;11.73;;;7.90;80.90;;;;;;5136382;27;20046;-80
2021/11/15 02:39:07;;;;;;;20.73;12.38;;;7.90;80.90;;;;;;5136666;27;20352;-79
2021/11/15 02:41:33;;;;;;;21.38;12.70;;;7.90;81.00;;;;;;5139313;27;20039;-78
2021/11/15 02:44:02;;;;;;;23.33;12.38;;;7.90;80.80;;;;;;5135949;27;20027;-79
2021/11/15 02:46:28;;;;;;;18.73;11.02;;;7.80;80.70;;;;;;5139295;27;20030;-79
2021/11/15 02:48:54;;;;;;;18.90;11.45;;;7.80;80.70;;;;;;5142398;27;20031;-78
2021/11/15 02:51:21;;;;;;;19.92;11.73;;;7.80;80.40;;;;;;5135960;27;20023;-78
2021/11/15 02:53:46;;;;;;;21.30;11.68;;;7.90;80.10;;;;;;5138577;27;20027;-78
2021/11/15 02:56:12;;;;;;;17.65;9.98;;;7.80;79.90;;;;;;5135601;27;20033;-79
2021/11/15 02:58:38;;;;;;;19.70;11.40;;;7.70;80.00;;;;;;5135556;27;20073;-78
2021/11/15 03:01:10;;;;;;;19.75;11.73;;;7.80;80.00;;;;;;5134620;27;20047;-78
2021/11/15 03:03:36;;;;;;;20.10;11.38;;;7.70;80.10;;;;;;5134684;27;20027;-79
2021/11/15 03:06:02;;;;;;;17.13;10.60;;;7.70;80.40;;;;;;5134528;27;20375;-79
2021/11/15 03:08:28;;;;;;;21.70;11.85;;;7.70;80.70;;;;;;5134646;27;20023;-79
2021/11/15 03:11:00;;;;;;;19.40;11.88;;;7.70;80.90;;;;;;5134304;27;20053;-78
2021/11/15 03:13:29;;;;;;;19.38;11.48;;;7.70;81.30;;;;;;5133906;27;20449;-79
2021/11/15 03:15:56;;;;;;;17.08;10.70;;;7.60;81.30;;;;;;5134219;27;20015;-78
2021/11/15 03:18:25;;;;;;;19.52;10.95;;;7.60;81.40;;;;;;5134370;27;20102;-79
2021/11/15 03:20:59;;;;;;;19.60;11.40;;;7.60;81.30;;;;;;5134242;27;20092;-79
2021/11/15 03:23:30;;;;;;;19.73;10.10;;;7.60;80.80;;;;;;5134243;27;20027;-78
2021/11/15 03:25:57;;;;;;;20.30;12.55;;;7.60;80.50;;;;;;5134151;27;20035;-78
2021/11/15 03:28:29;;;;;;;18.70;11.32;;;7.60;80.60;;;;;;5134157;27;20045;-78
2021/11/15 03:30:58;;;;;;;20.15;12.90;;;7.60;80.60;;;;;;5134120;27;20024;-79
2021/11/15 03:33:26;;;;;;;23.48;13.32;;;7.50;80.80;;;;;;5134009;27;20039;-80
2021/11/15 03:35:52;;;;;;;22.85;13.27;;;7.50;80.70;;;;;;5134063;27;20440;-79
2021/11/15 03:38:18;;;;;;;23.80;13.55;;;7.50;80.50;;;;;;5134077;27;20056;-78
2021/11/15 03:40:44;;;;;;;24.48;12.93;;;7.50;80.60;;;;;;5133989;27;20024;-77
2021/11/15 03:43:10;;;;;;;29.45;14.35;;;7.40;80.70;;;;;;5133930;27;20471;-77
2021/11/15 03:45:37;;;;;;;23.30;13.88;;;7.40;80.90;;;;;;5133932;27;20019;-77
2021/11/15 03:48:05;;;;;;;24.02;13.63;;;7.40;81.00;;;;;;5133973;27;20027;-77
2021/11/15 03:50:31;;;;;;;20.67;13.20;;;7.40;81.00;;;;;;5133908;27;20015;-77
2021/11/15 03:52:59;;;;;;;22.95;13.88;;;7.40;81.10;;;;;;5115360;27;20023;-77
2021/11/15 03:55:25;;;;;;;26.02;14.65;;;7.40;81.10;;;;;;5133860;27;20098;-77
2021/11/15 03:57:52;;;;;;;22.73;13.30;;;7.40;81.00;;;;;;5133941;27;20061;-77
2021/11/15 04:00:23;;;;;;;23.73;14.63;;;7.40;81.00;;;;;;5133847;27;20043;-77
2021/11/15 04:02:53;;;;;;;21.65;12.80;;;7.40;81.10;;;;;;5133724;27;20114;-77
2021/11/15 04:05:27;;;;;;;22.98;13.73;;;7.40;81.20;;;;;;5134001;27;20102;-78
2021/11/15 04:07:53;;;;;;;23.52;13.45;;;7.40;81.40;;;;;;5133826;27;20035;-79
2021/11/15 04:10:32;;;;;;;21.90;13.23;;;7.40;81.10;;;;;;5135806;27;20067;-79
2021/11/15 04:13:03;;;;;;;22.33;13.27;;;7.40;81.10;;;;;;5133916;27;20475;-79
2021/11/15 04:15:29;;;;;;;25.63;13.70;;;7.40;81.20;;;;;;5139500;27;20360;-78
2021/11/15 04:17:55;;;;;;;26.52;14.20;;;7.30;81.60;;;;;;5133944;27;20022;-78
2021/11/15 04:20:22;;;;;;;24.38;13.05;;;7.30;81.70;;;;;;5137049;27;20035;-78
2021/11/15 04:22:48;;;;;;;22.70;13.60;;;7.20;81.90;;;;;;5133841;28;20011;-78
2021/11/15 04:25:14;;;;;;;22.30;13.48;;;7.30;82.10;;;;;;5133964;27;20355;-78
2021/11/15 04:27:39;;;;;;;20.33;12.32;;;7.30;82.00;;;;;;5137492;27;20386;-78
2021/11/15 04:30:09;;;;;;;19.88;12.43;;;7.30;82.00;;;;;;5137584;27;20030;-78
2021/11/15 04:32:35;;;;;;;22.70;13.10;;;7.30;81.80;;;;;;5137379;27;20074;-78
2021/11/15 04:35:01;;;;;;;23.10;13.10;;;7.30;81.60;;;;;;5137334;27;20027;-78
2021/11/15 04:37:26;;;;;;;19.55;11.82;;;7.30;81.50;;;;;;5137336;27;20532;-79
2021/11/15 04:39:53;;;;;;;21.20;11.82;;;7.20;81.10;;;;;;5137220;27;20024;-79
2021/11/15 04:42:19;;;;;;;22.30;12.73;;;7.20;81.10;;;;;;5137153;27;20379;-79
2021/11/15 04:44:44;;;;;;;22.17;12.43;;;7.20;80.50;;;;;;5137071;27;20020;-78
2021/11/15 04:47:10;;;;;;;20.27;11.93;;;7.10;80.60;;;;;;5137112;27;20483;-78
2021/11/15 04:49:36;;;;;;;22.98;13.25;;;7.10;80.50;;;;;;5137005;27;20098;-79
2021/11/15 04:52:01;;;;;;;23.45;13.00;;;7.10;80.40;;;;;;5136898;27;20019;-78
2021/11/15 04:54:28;;;;;;;21.10;12.30;;;7.10;80.50;;;;;;5136866;27;20034;-78
2021/11/15 04:56:53;;;;;;;19.77;12.82;;;7.10;80.80;;;;;;5136924;27;20023;-78
2021/11/15 04:59:19;;;;;;;22.25;12.63;;;7.10;80.60;;;;;;5136834;27;20159;-78
2021/11/15 05:01:45;;;;;;;25.38;12.57;;;7.10;80.50;;;;;;5136814;27;20538;-78
2021/11/15 05:04:10;;;;;;;20.10;12.48;;;7.10;80.60;;;;;;5136742;27;20031;-77
2021/11/15 05:06:36;;;;;;;22.30;12.63;;;7.10;80.70;;;;;;5136729;27;20034;-78
2021/11/15 05:09:02;;;;;;;23.50;13.25;;;7.10;80.70;;;;;;5136123;27;20025;-79
2021/11/15 05:11:27;;;;;;;21.60;12.75;;;7.00;80.50;;;;;;5136546;27;20497;-78
2021/11/15 05:13:53;;;;;;;18.17;11.45;;;7.10;80.70;;;;;;5136551;27;20019;-77
2021/11/15 05:16:19;;;;;;;22.77;12.35;;;7.10;80.70;;;;;;5136521;27;20027;-78
2021/11/15 05:18:44;;;;;;;24.13;11.55;;;7.10;80.50;;;;;;5136567;27;20095;-78
2021/11/15 05:21:10;;;;;;;21.95;12.55;;;7.10;80.80;;;;;;5136323;27;20114;-77
2021/11/15 05:23:37;;;;;;;23.10;13.10;;;7.10;80.60;;;;;;5136321;27;20019;-78
2021/11/15 05:26:03;;;;;;;23.90;12.73;;;7.10;80.70;;;;;;5136350;27;20049;-77
2021/11/15 05:28:28;;;;;;;19.55;11.10;;;6.90;80.90;;;;;;5136351;27;20033;-78
2021/11/15 05:30:54;;;;;;;21.23;12.68;;;7.00;81.00;;;;;;5136345;27;20099;-77
2021/11/15 05:33:19;;;;;;;20.95;12.32;;;6.90;81.20;;;;;;5136126;27;20043;-78
2021/11/15 05:35:45;;;;;;;23.77;13.52;;;6.90;81.60;;;;;;5136299;27;20026;-77
2021/11/15 05:38:11;;;;;;;19.23;11.25;;;6.90;81.80;;;;;;5135736;27;20019;-77
2021/11/15 05:40:36;;;;;;;24.05;12.85;;;6.90;81.90;;;;;;5117784;27;20019;-78
2021/11/15 05:43:03;;;;;;;24.08;13.85;;;7.00;81.90;;;;;;5136030;27;20027;-78
2021/11/15 05:45:29;;;;;;;23.08;12.95;;;7.00;81.80;;;;;;5136082;27;20020;-78
2021/11/15 05:47:55;;;;;;;26.70;14.05;;;6.90;81.60;;;;;;5135902;27;20062;-78
2021/11/15 05:50:22;;;;;;;23.15;13.13;;;6.90;80.90;;;;;;5135876;27;20471;-78
2021/11/15 05:52:49;;;;;;;24.02;12.27;;;7.00;80.90;;;;;;5135949;27;20027;-78
2021/11/15 05:55:19;;;;;;;21.20;11.88;;;7.00;81.70;;;;;;5136041;27;20467;-78
2021/11/15 05:57:45;;;;;;;21.05;11.93;;;7.00;80.90;;;;;;5140809;27;20031;-77
2021/11/15 06:00:13;;;;;;;18.98;11.35;;;7.00;81.10;;;;;;5135966;27;20019;-78
2021/11/15 06:02:39;;;;;;;20.67;12.18;;;7.10;81.10;;;;;;5135770;27;20031;-79
2021/11/15 06:05:06;;;;;;;21.77;11.93;;;7.10;81.00;;;;;;5135639;27;20019;-78
2021/11/15 06:07:32;;;;;;;25.25;12.95;;;7.10;81.00;;;;;;5135797;27;20156;-79
2021/11/15 06:09:58;;;;;;;25.33;13.13;;;7.00;81.30;;;;;;5135420;27;20050;-77
2021/11/15 06:12:23;;;;;;;26.58;13.10;;;6.90;81.50;;;;;;5135464;27;20041;-78
2021/11/15 06:14:49;;;;;;;23.13;13.45;;;6.90;81.70;;;;;;5135367;27;20035;-77
2021/11/15 06:17:17;;;;;;;22.42;12.35;;;6.90;81.80;;;;;;5135331;27;20084;-78
2021/11/15 06:19:43;;;;;;;23.58;12.55;;;6.90;81.90;;;;;;5135323;27;20029;-79
2021/11/15 06:22:09;;;;;;;22.55;13.98;;;6.90;81.90;;;;;;5135245;27;20418;-79
2021/11/15 06:24:35;;;;;;;23.70;13.60;;;6.90;82.00;;;;;;5135212;27;20050;-78
2021/11/15 06:27:01;;;;;;;25.05;13.80;;;6.90;81.90;;;;;;5134962;27;20062;-77
2021/11/15 06:29:27;;;;;;;25.25;13.27;;;7.00;81.80;;;;;;5135064;27;20459;-78
2021/11/15 06:31:54;;;;;;;21.20;12.27;;;7.00;81.70;;;;;;5134752;27;20079;-78
2021/11/15 06:34:19;;;;;;;24.30;13.57;;;6.90;81.30;;;;;;5134590;27;20024;-80
2021/11/15 06:36:45;;;;;;;22.85;13.38;;;7.00;81.40;;;;;;5134899;27;20026;-79
2021/11/15 06:39:11;;;;;;;26.80;14.75;;;6.90;81.40;;;;;;5134923;27;20454;-79
2021/11/15 06:41:37;;;;;;;24.20;13.88;;;7.00;81.40;;;;;;5134822;27;20019;-78
2021/11/15 06:44:08;;;;;;;23.75;12.93;;;7.00;81.50;;;;;;5134733;27;20034;-79
2021/11/15 06:46:33;;;;;;;25.10;13.10;;;7.00;81.40;;;;;;5134813;27;20103;-77
2021/11/15 06:48:59;;;;;;;21.00;12.45;;;7.00;81.40;;;;;;5133831;27;20481;-78
2021/11/15 06:51:25;;;;;;;19.13;11.68;;;7.00;81.30;;;;;;5134580;27;20065;-77
2021/11/15 06:53:51;;;;;;;23.33;12.25;;;7.00;81.10;;;;;;5134479;27;20517;-78
2021/11/15 06:56:16;;;;;;;19.23;11.88;;;7.00;81.20;;;;;;5134414;27;20486;-77
2021/11/15 06:58:42;;;;;;;18.90;11.60;;;7.10;81.40;;;;;;5134415;27;20019;-77
2021/11/15 07:01:08;;;;;;;19.58;11.65;;;7.10;81.30;;;;;;5134560;27;20452;-76
2021/11/15 07:03:34;;;;;;;21.23;11.88;;;7.00;81.20;;;;;;5134383;27;20055;-76
2021/11/15 07:06:00;;;;;;;22.35;12.38;;;7.10;81.40;;;;;;5134301;27;20495;-78
2021/11/15 07:08:26;;;;;;;22.48;13.15;;;7.10;80.90;;;;;;5134068;27;20031;-78
2021/11/15 07:10:52;;;;;;;21.90;12.75;;;7.00;80.90;;;;;;5133935;27;20016;-78
2021/11/15 07:13:18;;;;;;;19.85;10.85;;;7.00;81.00;;;;;;5134160;27;20057;-79
2021/11/15 07:15:44;;;;;;;19.92;11.32;;;7.00;81.20;;;;;;5115400;27;20019;-78
2021/11/15 07:18:10;;;;;;;17.00;10.52;;;7.00;81.10;;;;;;5133946;27;20027;-78
2021/11/15 07:20:36;;;;;;;20.95;10.90;;;7.10;81.00;;;;;;5133958;27;20072;-78
2021/11/15 07:23:02;;;;;;;17.85;10.30;;;7.00;81.80;;;;;;5133781;27;20050;-78
2021/11/15 07:25:28;;;;;;;17.60;10.25;;;7.00;81.10;;;;;;5134188;27;20023;-78
2021/11/15 07:27:55;;;;;;;15.70;9.88;;;7.00;81.10;;;;;;5133895;27;20038;-78
2021/11/15 07:30:22;;;;;;;17.67;10.13;;;7.00;81.10;;;;;;5134059;27;20034;-78
2021/11/15 07:32:50;;;;;;;20.75;11.15;;;7.10;81.30;;;;;;5115319;27;20043;-77
2021/11/15 07:35:16;;;;;;;16.98;10.38;;;7.10;81.20;;;;;;5134322;27;20102;-78
2021/11/15 07:37:42;;;;;;;15.65;9.50;;;7.10;81.10;;;;;;5134247;27;20042;-78
2021/11/15 07:40:09;;;;;;;16.27;9.25;;;7.10;80.80;;;;;;5134247;27;20459;-78
2021/11/15 07:42:35;;;;;;;14.95;9.50;;;7.00;80.30;;;;;;5133813;27;20410;-78
2021/11/15 07:45:03;;;;;;;17.42;10.30;;;7.10;80.30;;;;;;5133795;27;20073;-77
2021/11/15 07:47:29;;;;;;;16.10;9.40;;;7.00;79.60;;;;;;5133756;27;20439;-79
2021/11/15 07:49:55;;;;;;;15.68;9.52;;;7.00;79.20;;;;;;5133496;27;20023;-77
2021/11/15 07:52:22;;;;;;;14.68;8.85;;;7.00;79.00;;;;;;5133793;27;20053;-79
2021/11/15 07:54:48;;;;;;;14.50;9.10;;;6.90;78.50;;;;;;5133576;28;20015;-82
2021/11/15 07:57:15;;;;;;;16.15;9.20;;;7.00;78.30;;;;;;5133632;27;20023;-78
2021/11/15 07:59:41;;;;;;;14.05;8.55;;;7.00;78.40;;;;;;5134578;27;20063;-77
2021/11/15 08:02:08;;;;;;;14.63;8.63;;;6.90;78.70;;;;;;5137672;27;20474;-77
2021/11/15 08:04:34;;;;;;;12.77;8.35;;;6.90;78.50;;;;;;5137737;27;20409;-78
2021/11/15 08:07:00;;;;;;;18.33;9.77;;;6.90;78.60;;;;;;5137508;27;20020;-76
2021/11/15 08:09:26;;;;;;;18.25;8.38;;;6.90;79.10;;;;;;5137731;27;20031;-77
2021/11/15 08:11:55;;;;;;;14.82;8.52;;;6.80;79.30;;;;;;5137741;27;20406;-77
2021/11/15 08:14:21;;;;;;;15.38;8.45;;;6.90;79.50;;;;;;5137575;27;20019;-77
2021/11/15 08:16:47;;;;;;;18.27;9.38;;;6.90;79.40;;;;;;5137584;27;20071;-76
2021/11/15 08:19:14;;;;;;;15.10;8.88;;;6.90;79.80;;;;;;5137774;27;20023;-77
2021/11/15 08:21:40;;;;;;;13.85;8.15;;;6.90;79.90;;;;;;5137466;27;20068;-76
2021/11/15 08:24:18;;;;;;;16.75;9.88;;;6.90;80.00;;;;;;5118957;27;20112;-76
2021/11/15 08:26:57;;;;;;;16.10;9.15;;;6.90;80.20;;;;;;5137097;27;20031;-77
2021/11/15 08:29:25;;;;;;;16.05;8.52;;;7.00;80.20;;;;;;5137781;27;20352;-77
2021/11/15 08:31:52;;;;;;;17.02;10.57;;;7.00;80.10;;;;;;5137447;27;20092;-78
2021/11/15 08:34:18;;;;;;;14.98;8.88;;;7.00;80.00;;;;;;5137609;27;20018;-77
2021/11/15 08:36:44;;;;;;;15.48;9.02;;;7.00;80.10;;;;;;5137356;27;20098;-77
2021/11/15 08:39:21;;;;;;;14.23;8.50;;;7.00;79.80;;;;;;5118546;27;20027;-77
2021/11/15 08:41:54;;;;;;;15.93;9.13;;;7.00;79.80;;;;;;5137029;27;20011;-78
2021/11/15 08:44:20;;;;;;;12.85;7.95;;;7.10;79.60;;;;;;5137050;27;20364;-76
2021/11/15 08:46:48;;;;;;;13.05;8.30;;;7.10;79.20;;;;;;5136926;27;20080;-79
2021/11/15 08:49:18;;;;;;;14.35;8.65;;;7.10;79.10;;;;;;5118803;27;20475;-77
2021/11/15 08:51:45;;;;;;;13.43;8.40;;;7.10;79.20;;;;;;5137145;27;20464;-77
2021/11/15 08:54:15;;;;;;;13.82;8.40;;;7.10;79.20;;;;;;5136814;27;20031;-79
2021/11/15 08:57:02;;;;;;;12.60;7.68;;;7.10;79.10;;;;;;5136916;27;20024;-77
2021/11/15 08:59:27;;;;;;;13.13;7.95;;;7.10;79.00;;;;;;5136140;27;20027;-80
2021/11/15 09:01:54;;;;;;;13.73;8.40;;;7.20;79.40;;;;;;5118509;27;20121;-82
2021/11/15 09:04:20;;;;;;;14.77;8.00;;;7.10;79.40;;;;;;5136811;27;20019;-84
2021/11/15 09:06:46;;;;;;;13.70;8.52;;;7.20;79.30;;;;;;5136825;27;20027;-78
2021/11/15 09:09:16;;;;;;;11.70;7.40;;;7.20;79.10;;;;;;5118203;27;20066;-78
2021/11/15 09:11:52;;;;;;;12.32;7.35;;;7.20;79.10;;;;;;5117776;27;20023;-78
2021/11/15 09:14:40;;;;;;;28.23;7.70;;;7.20;79.10;;;;;;5136906;27;20023;-81
2021/11/15 09:17:06;;;;;;;16.60;7.55;;;7.30;84.10;;;;;;5137165;27;20481;-82
2021/11/15 09:19:32;;;;;;;16.42;8.38;;;7.70;90.80;;;;;;5118197;27;20065;-82
2021/11/15 09:21:57;;;;;;;13.23;7.32;;;8.20;85.10;;;;;;5135938;27;20376;-82
2021/11/15 09:24:23;;;;;;;12.77;7.57;;;8.60;80.60;;;;;;5136236;27;20046;-83
2021/11/15 09:26:50;;;;;;;12.30;7.35;;;9.10;77.00;;;;;;5118430;27;20051;-82
2021/11/15 09:29:18;;;;;;;11.38;5.97;;;9.40;74.80;;;;;;5136600;27;20504;-78
2021/11/15 09:31:44;;;;;;;12.32;7.00;;;9.80;71.50;;;;;;5136342;27;20483;-78
2021/11/15 09:34:10;;;;;;;12.93;6.50;;;10.00;68.90;;;;;;5136181;27;20019;-78
2021/11/15 09:36:37;;;;;;;10.35;6.35;;;10.10;69.40;;;;;;5136058;27;20024;-78
2021/11/15 09:39:05;;;;;;;9.93;6.38;;;10.10;67.60;;;;;;5136085;27;20527;-81
2021/11/15 09:41:31;;;;;;;11.02;6.38;;;10.30;66.90;;;;;;5135942;27;20047;-77
2021/11/15 09:43:57;;;;;;;10.80;6.97;;;10.40;66.30;;;;;;5136160;27;20019;-78
2021/11/15 09:46:26;;;;;;;9.48;6.00;;;10.40;64.30;;;;;;5135962;27;20019;-77
2021/11/15 09:48:59;;;;;;;10.85;7.43;;;10.00;64.40;;;;;;5135789;27;20023;-77
2021/11/15 09:51:26;;;;;;;11.70;6.95;;;9.50;66.10;;;;;;5135886;27;20056;-77
2021/11/15 09:53:52;;;;;;;11.38;7.20;;;9.10;67.20;;;;;;5135619;27;20023;-77
2021/11/15 09:56:20;;;;;;;12.27;7.78;;;8.80;68.90;;;;;;5135862;27;20026;-77
2021/11/15 09:58:45;;;;;;;13.27;7.78;;;8.40;70.40;;;;;;5135447;27;20020;-77
2021/11/15 10:01:12;;;;;;;14.70;7.25;;;8.30;71.90;;;;;;5117265;27;20030;-77
2021/11/15 10:03:38;;;;;;;13.25;8.07;;;8.10;72.80;;;;;;5136443;27;20153;-77
2021/11/15 10:06:04;;;;;;;12.93;7.07;;;7.90;73.60;;;;;;5139358;27;20046;-77
2021/11/15 10:08:56;;;;;;;12.45;8.02;;;7.80;74.20;;;;;;5139072;27;20031;-78
2021/11/15 10:11:23;;;;;;;14.32;7.38;;;7.70;74.80;;;;;;5142136;27;20031;-77
2021/11/15 10:13:51;;;;;;;12.25;7.40;;;7.70;75.00;;;;;;5139966;27;20030;-77
2021/11/15 10:16:25;;;;;;;11.80;7.35;;;7.60;75.20;;;;;;5136809;27;20019;-76
2021/11/15 10:18:54;;;;;;;12.75;7.88;;;7.60;75.20;;;;;;5135810;27;20023;-77
2021/11/15 10:21:32;;;;;;;13.95;7.65;;;7.60;75.50;;;;;;5135362;27;20065;-77
2021/11/15 10:24:04;;;;;;;12.60;7.45;;;7.60;75.80;;;;;;5134472;27;20062;-76
2021/11/15 10:26:37;;;;;;;12.10;7.28;;;7.60;76.40;;;;;;5135373;27;20020;-76
2021/11/15 10:29:05;;;;;;;13.63;8.15;;;7.60;76.10;;;;;;5135048;27;20030;-76
2021/11/15 10:31:46;;;;;;;10.70;6.75;;;7.60;76.00;;;;;;5134814;27;20390;-78
2021/11/15 10:34:18;;;;;;;13.30;7.47;;;7.60;76.00;;;;;;5135052;27;20027;-78
2021/11/15 10:37:04;;;;;;;13.43;7.80;;;7.60;76.00;;;;;;5135055;27;20023;-77
2021/11/15 10:39:39;;;;;;;11.88;7.80;;;7.60;76.00;;;;;;5116717;27;20023;-77
2021/11/15 10:42:14;;;;;;;13.13;7.28;;;7.60;76.20;;;;;;5116669;27;20027;-78
2021/11/15 10:44:49;;;;;;;13.02;7.88;;;7.60;76.00;;;;;;5134771;27;20023;-78
2021/11/15 10:47:16;;;;;;;13.05;7.05;;;7.60;76.00;;;;;;5134674;27;20035;-78
2021/11/15 10:49:42;;;;;;;11.93;7.35;;;7.60;76.00;;;;;;5134626;27;20023;-79
2021/11/15 10:52:14;;;;;;;11.82;7.22;;;7.60;76.20;;;;;;5134290;27;20027;-78
2021/11/15 10:57:37;;;;;;;11.50;7.53;;;7.70;76.20;;;;;;5134334;27;20035;-79
2021/11/15 11:00:11;;;;;;;13.85;6.93;;;7.60;75.90;;;;;;5134266;27;20026;-77
2021/11/15 11:02:44;;;;;;;10.95;6.80;;;7.60;75.80;;;;;;5115727;27;20035;-78
2021/11/15 11:05:16;;;;;;;12.00;6.90;;;7.60;75.60;;;;;;5134102;27;20019;-78
2021/11/15 11:07:46;;;;;;;10.95;7.07;;;7.60;75.50;;;;;;5134095;27;20434;-78
2021/11/15 11:10:16;;;;;;;12.10;7.82;;;7.60;75.70;;;;;;5133859;27;20019;-77
2021/11/15 11:13:00;;;;;;;13.77;8.73;;;7.50;76.00;;;;;;5115639;27;20122;-77
2021/11/15 11:15:39;;;;;;;12.63;7.68;;;7.50;76.30;;;;;;5114606;27;20023;-86
2021/11/15 11:18:21;;;;;;;15.07;7.03;;;7.50;77.10;;;;;;5134736;27;20375;-85
2021/11/15 11:24:08;;;;;;;24.58;8.82;;;8.40;81.20;;;;;;5135542;27;20019;-84
2021/11/15 11:26:33;;;;;;;22.88;7.05;;;8.80;78.10;;;;;;5133699;27;20496;-85
2021/11/15 11:29:07;;;;;;;15.95;7.55;;;9.20;78.60;;;;;;5133915;27;20050;-81
2021/11/15 11:31:35;;;;;;;32.42;8.88;;;9.50;75.50;;;;;;5134219;27;20039;-82
2021/11/15 11:34:02;;;;;;;29.05;7.80;;;9.70;74.30;;;;;;5133758;27;20023;-85
2021/11/15 11:36:28;;;;;;;39.45;8.90;;;9.90;73.90;;;;;;5140102;27;20123;-84
2021/11/15 11:38:54;;;;;;;20.60;7.32;;;10.20;72.40;;;;;;5140509;27;20015;-83
2021/11/15 11:41:21;;;;;;;11.73;7.43;;;10.40;71.10;;;;;;5134055;27;20547;-78
2021/11/15 11:43:48;;;;;;;10.23;6.20;;;10.30;67.20;;;;;;5115080;28;20055;-77
2021/11/15 11:49:37;;;;;;;10.90;7.22;;;9.50;68.40;;;;;;5167159;22;20079;-79
2021/11/15 11:52:09;;;;;;;11.13;7.50;;;9.00;69.80;;;;;;5070065;28;20077;-78
2021/11/15 11:54:37;;;;;;;11.40;7.28;;;8.80;70.60;;;;;;5072163;28;20096;-79
2021/11/15 11:57:19;;;;;;;13.45;7.72;;;8.60;71.70;;;;;;5071986;28;20025;-78
2021/11/15 11:59:44;;;;;;;9.70;6.13;;;8.40;72.40;;;;;;5071016;28;20577;-79
2021/11/15 12:02:13;;;;;;;11.63;6.30;;;8.30;72.70;;;;;;5071319;28;20048;-79
2021/11/15 12:04:52;;;;;;;9.65;6.15;;;8.20;73.10;;;;;;5071441;28;20523;-78
2021/11/15 12:07:51;;;;;;;9.77;5.75;;;8.20;73.50;;;;;;5070585;28;20477;-78
2021/11/15 12:10:43;;;;;;;8.25;5.55;;;8.20;73.60;;;;;;5064014;28;20491;-79
2021/11/15 12:13:11;;;;;;;9.68;5.95;;;8.20;73.60;;;;;;5069273;28;20025;-79
2021/11/15 12:15:55;;;;;;;9.90;4.93;;;8.10;73.60;;;;;;5069118;28;20017;-79
2021/11/15 12:18:25;;;;;;;11.07;6.05;;;8.10;73.90;;;;;;5069927;28;20131;-78
2021/11/15 12:21:03;;;;;;;9.23;5.90;;;8.10;73.70;;;;;;5072127;28;20067;-78
2021/11/15 12:23:52;;;;;;;8.95;5.78;;;8.10;74.10;;;;;;5072321;28;20098;-79
2021/11/15 12:26:24;;;;;;;8.73;5.65;;;8.00;73.70;;;;;;5063720;28;20060;-78
2021/11/15 12:28:57;;;;;;;9.85;5.78;;;7.90;74.20;;;;;;5072345;28;20035;-79
2021/11/15 12:31:38;;;;;;;9.32;6.07;;;7.90;74.70;;;;;;5072223;28;20028;-78
2021/11/15 12:34:04;;;;;;;10.00;5.50;;;7.90;74.40;;;;;;5071036;28;20043;-77
2021/11/15 12:36:47;;;;;;;11.13;6.45;;;7.90;74.20;;;;;;5072235;28;20041;-77
2021/11/15 12:39:22;;;;;;;9.77;5.93;;;7.80;74.30;;;;;;5072240;28;20028;-77
2021/11/15 12:41:51;;;;;;;11.88;6.30;;;7.80;74.50;;;;;;5072152;28;20016;-77
2021/11/15 12:44:31;;;;;;;13.65;7.53;;;7.80;74.70;;;;;;5072115;28;20029;-77
2021/11/15 12:47:02;;;;;;;13.25;7.47;;;7.80;74.70;;;;;;5073470;28;20476;-80
2021/11/15 12:49:41;;;;;;;9.52;5.72;;;7.90;76.40;;;;;;5075618;28;20044;-75
2021/11/15 12:52:07;;;;;;;12.30;5.28;;;8.10;80.20;;;;;;5075535;28;20028;-76
2021/11/15 12:54:35;;;;;;;10.18;5.57;;;8.70;83.20;;;;;;5075756;28;20082;-76